createdAt,value
2023-01-13T00:02:33.407Z,0.90
2023-01-13T00:05:35.693Z,1.30
2023-01-13T00:08:37.487Z,1.23
2023-01-13T00:11:39.363Z,1.25
2023-01-13T00:14:41.336Z,1.23
2023-01-13T00:17:43.160Z,2.50
2023-01-13T00:20:45.015Z,2.63
2023-01-13T00:23:47.584Z,1.48
2023-01-13T00:26:49.658Z,2.23
2023-01-13T00:29:51.613Z,4.95
2023-01-13T00:32:53.387Z,4.00
2023-01-13T00:36:00.265Z,2.67
2023-01-13T00:39:03.250Z,2.58
2023-01-13T00:42:23.474Z,4.13
2023-01-13T00:45:25.294Z,5.57
2023-01-13T00:48:29.015Z,5.15
2023-01-13T00:51:30.941Z,3.60
2023-01-13T00:54:32.811Z,3.95
2023-01-13T00:57:34.880Z,2.42
2023-01-13T01:00:37.028Z,5.60
2023-01-13T01:03:39.341Z,2.88
2023-01-13T01:06:41.885Z,2.25
2023-01-13T01:09:43.701Z,2.40
2023-01-13T01:12:45.507Z,3.10
2023-01-13T01:15:48.318Z,2.78
2023-01-13T01:18:52.158Z,3.22
2023-01-13T01:21:55.110Z,1.85
2023-01-13T01:24:56.970Z,7.05
2023-01-13T01:27:59.112Z,4.35
2023-01-13T01:31:14.719Z,4.15
2023-01-13T01:34:17.351Z,3.33
2023-01-13T01:37:19.129Z,4.53
2023-01-13T01:40:20.996Z,5.80
2023-01-13T01:44:01.969Z,2.72
2023-01-13T01:47:04.235Z,2.83
2023-01-13T01:50:06.387Z,3.80
2023-01-13T01:53:18.727Z,3.92
2023-01-13T01:56:21.388Z,3.38
2023-01-13T01:59:25.540Z,1.92
2023-01-13T02:02:29.001Z,3.88
2023-01-13T02:05:32.396Z,3.60
2023-01-13T02:11:55.526Z,5.03
2023-01-13T02:15:01.565Z,3.67
2023-01-13T02:18:20.052Z,4.35
2023-01-13T02:22:02.638Z,3.60
2023-01-13T02:25:36.532Z,5.60
2023-01-13T02:32:54.090Z,7.00
2023-01-13T02:36:29.188Z,8.13
2023-01-13T02:39:41.763Z,6.05
2023-01-13T02:43:15.157Z,8.23
2023-01-13T02:46:25.398Z,10.43
2023-01-13T02:49:44.996Z,7.75
2023-01-13T02:52:58.466Z,5.88
2023-01-13T02:56:03.380Z,6.47
2023-01-13T02:59:06.897Z,8.18
2023-01-13T03:02:12.829Z,7.05
2023-01-13T03:05:17.042Z,12.07
2023-01-13T03:09:06.289Z,6.68
2023-01-13T03:12:40.039Z,9.52
2023-01-13T03:15:56.916Z,12.60
2023-01-13T03:19:16.168Z,7.90
2023-01-13T03:22:24.208Z,10.65
2023-01-13T03:25:31.147Z,11.70
2023-01-13T03:28:41.368Z,9.88
2023-01-13T03:32:01.593Z,10.23
2023-01-13T03:35:33.862Z,8.25
2023-01-13T03:38:45.972Z,9.07
2023-01-13T03:42:00.044Z,9.95
2023-01-13T03:45:01.887Z,21.08
2023-01-13T03:48:12.992Z,13.25
2023-01-13T03:51:19.609Z,10.02
2023-01-13T03:54:25.775Z,11.38
2023-01-13T03:57:32.679Z,9.50
2023-01-13T04:00:41.135Z,13.93
2023-01-13T04:04:05.564Z,9.30
2023-01-13T04:07:35.332Z,9.88
2023-01-13T04:11:03.595Z,9.75
2023-01-13T04:14:08.450Z,11.15
2023-01-13T04:17:10.728Z,14.35
2023-01-13T04:20:13.418Z,11.85
2023-01-13T04:23:16.137Z,9.60
2023-01-13T04:26:19.774Z,10.32
2023-01-13T04:29:21.571Z,9.43
2023-01-13T04:32:23.676Z,12.93
2023-01-13T04:35:25.785Z,7.53
2023-01-13T04:38:27.739Z,12.18
2023-01-13T04:41:50.028Z,6.57
2023-01-13T04:44:52.005Z,6.20
2023-01-13T04:47:54.086Z,5.65
2023-01-13T04:50:55.931Z,9.77
2023-01-13T04:53:57.848Z,8.25
2023-01-13T04:56:59.847Z,9.93
2023-01-13T05:00:02.194Z,9.57
2023-01-13T05:03:04.864Z,10.23
2023-01-13T05:06:06.951Z,9.00
2023-01-13T05:09:09.173Z,6.32
2023-01-13T05:12:30.055Z,9.05
2023-01-13T05:16:01.273Z,9.20
2023-01-13T05:19:03.167Z,10.88
2023-01-13T05:22:25.285Z,9.25
2023-01-13T05:25:28.207Z,9.10
2023-01-13T05:28:34.134Z,7.38
2023-01-13T05:31:36.208Z,7.10
2023-01-13T05:34:38.119Z,5.63
2023-01-13T05:37:40.158Z,7.97
2023-01-13T05:41:00.911Z,6.25
2023-01-13T05:44:03.035Z,10.52
2023-01-13T05:47:05.423Z,4.40
2023-01-13T05:50:08.314Z,5.72
2023-01-13T05:53:10.284Z,7.93
2023-01-13T05:56:12.515Z,6.05
2023-01-13T05:59:14.311Z,5.07
2023-01-13T06:02:16.307Z,4.85
2023-01-13T06:05:18.121Z,6.18
2023-01-13T06:08:20.020Z,5.95
2023-01-13T06:11:21.855Z,4.75
2023-01-13T06:14:23.896Z,5.88
2023-01-13T06:17:25.740Z,2.80
2023-01-13T06:20:27.526Z,3.25
2023-01-13T06:23:29.624Z,11.65
2023-01-13T06:26:39.348Z,4.13
2023-01-13T06:29:41.763Z,5.35
2023-01-13T06:32:49.088Z,2.83
2023-01-13T06:35:56.184Z,5.40
2023-01-13T06:39:01.566Z,4.68
2023-01-13T06:42:23.106Z,1.92
2023-01-13T06:45:27.115Z,3.33
2023-01-13T06:48:34.171Z,1.30
2023-01-13T06:51:35.985Z,3.65
2023-01-13T06:54:38.055Z,3.67
2023-01-13T06:57:57.222Z,7.95
2023-01-13T07:01:02.385Z,4.72
2023-01-13T07:04:04.498Z,6.07
2023-01-13T07:07:07.837Z,3.33
2023-01-13T07:13:31.789Z,6.03
2023-01-13T07:16:33.924Z,7.05
2023-01-13T07:19:35.971Z,10.13
2023-01-13T07:22:38.023Z,5.65
2023-01-13T07:25:39.846Z,8.50
2023-01-13T07:28:42.397Z,17.15
2023-01-13T07:31:44.803Z,8.60
2023-01-13T07:34:46.797Z,11.32
2023-01-13T07:37:49.231Z,9.90
2023-01-13T07:40:51.298Z,12.13
2023-01-13T07:43:53.153Z,15.10
2023-01-13T07:46:55.563Z,12.88
2023-01-13T07:49:57.465Z,12.10
2023-01-13T07:52:59.554Z,11.18
2023-01-13T07:56:02.845Z,15.82
2023-01-13T08:02:07.141Z,15.10
2023-01-13T08:05:09.623Z,20.07
2023-01-13T08:08:11.885Z,13.00
2023-01-13T08:11:14.100Z,14.95
2023-01-13T08:14:16.045Z,19.92
2023-01-13T08:17:20.382Z,7.18
2023-01-13T08:20:22.569Z,25.23
2023-01-13T08:23:24.598Z,15.40
2023-01-13T08:26:27.354Z,9.85
2023-01-13T08:29:29.434Z,13.98
2023-01-13T08:32:31.620Z,12.75
2023-01-13T08:35:33.933Z,14.20
2023-01-13T08:38:37.009Z,5.90
2023-01-13T08:41:58.573Z,15.95
2023-01-13T08:45:01.167Z,19.25
2023-01-13T08:48:03.998Z,12.10
2023-01-13T08:51:08.038Z,17.02
2023-01-13T08:54:11.023Z,17.75
2023-01-13T08:57:13.301Z,15.07
2023-01-13T09:00:17.223Z,17.23
2023-01-13T09:03:19.300Z,21.45
2023-01-13T09:06:21.241Z,13.68
2023-01-13T09:09:23.997Z,16.15
2023-01-13T09:12:44.491Z,11.18
2023-01-13T09:15:46.719Z,14.77
2023-01-13T09:18:48.738Z,13.18
2023-01-13T09:21:52.530Z,12.27
2023-01-13T09:24:55.531Z,14.18
2023-01-13T09:27:58.012Z,18.35
2023-01-13T09:31:02.827Z,12.03
2023-01-13T09:34:25.344Z,12.73
2023-01-13T09:37:39.448Z,18.38
2023-01-13T09:40:43.794Z,9.38
2023-01-13T09:43:57.718Z,15.02
2023-01-13T09:47:04.148Z,14.70
2023-01-13T09:50:22.047Z,12.82
2023-01-13T09:53:32.651Z,13.00
2023-01-13T09:56:34.481Z,14.77
2023-01-13T09:59:38.103Z,17.50
2023-01-13T10:02:58.849Z,19.60
2023-01-13T10:06:15.592Z,15.45
2023-01-13T10:09:34.229Z,18.20
2023-01-13T10:12:54.886Z,15.73
2023-01-13T10:16:12.940Z,15.45
2023-01-13T10:19:25.367Z,12.57
2023-01-13T10:22:52.972Z,14.18
2023-01-13T10:26:13.626Z,19.67
2023-01-13T10:29:27.483Z,14.50
2023-01-13T10:32:29.342Z,16.73
2023-01-13T10:35:56.896Z,20.30
2023-01-13T10:39:09.688Z,18.30
2023-01-13T10:42:17.745Z,16.43
2023-01-13T10:45:26.615Z,11.77
2023-01-13T10:51:53.724Z,14.50
2023-01-13T10:54:55.963Z,15.77
2023-01-13T10:57:58.039Z,16.33
2023-01-13T11:01:03.123Z,14.23
2023-01-13T11:04:30.743Z,13.25
2023-01-13T11:07:39.249Z,11.68
2023-01-13T11:10:47.092Z,15.13
2023-01-13T11:14:11.793Z,16.35
2023-01-13T11:17:32.690Z,15.43
2023-01-13T11:20:39.075Z,13.27
2023-01-13T11:23:49.053Z,12.45
2023-01-13T11:26:58.388Z,12.18
2023-01-13T11:30:03.811Z,16.65
2023-01-13T11:33:11.627Z,13.40
2023-01-13T11:36:17.749Z,17.77
2023-01-13T11:39:36.121Z,20.85
2023-01-13T11:42:49.111Z,15.63
2023-01-13T11:45:57.368Z,17.25
2023-01-13T11:49:01.279Z,11.38
2023-01-13T11:52:22.142Z,10.15
2023-01-13T11:55:40.063Z,17.73
2023-01-13T11:59:07.931Z,20.42
2023-01-13T12:02:28.471Z,15.82
2023-01-13T12:05:44.713Z,19.30
2023-01-13T12:09:13.940Z,12.93
2023-01-13T12:12:57.849Z,25.67
2023-01-13T12:16:09.298Z,15.50
2023-01-13T12:19:32.385Z,9.98
2023-01-13T12:22:36.843Z,16.80
2023-01-13T12:25:49.743Z,14.68
2023-01-13T12:29:21.584Z,18.97
2023-01-13T12:32:33.320Z,13.15
2023-01-13T12:35:51.493Z,16.15
2023-01-13T12:38:57.123Z,20.13
2023-01-13T12:42:29.641Z,11.95
2023-01-13T12:45:33.670Z,15.07
2023-01-13T12:49:04.867Z,17.00
2023-01-13T12:52:13.992Z,15.90
2023-01-13T12:55:35.698Z,14.40
2023-01-13T12:58:37.501Z,12.15
2023-01-13T13:01:39.578Z,14.88
2023-01-13T13:04:49.252Z,10.35
2023-01-13T13:08:25.816Z,18.70
2023-01-13T13:11:57.978Z,14.48
2023-01-13T13:15:03.848Z,14.88
2023-01-13T13:18:08.624Z,10.02
2023-01-13T13:21:10.955Z,10.30
2023-01-13T13:24:13.174Z,11.40
2023-01-13T13:27:28.730Z,18.33
2023-01-13T13:30:41.833Z,16.38
2023-01-13T13:34:22.676Z,14.48
2023-01-13T13:37:56.332Z,19.83
2023-01-13T13:41:17.491Z,18.42
2023-01-13T13:44:47.530Z,15.73
2023-01-13T13:47:51.637Z,18.52
2023-01-13T13:50:58.971Z,16.25
2023-01-13T13:54:02.743Z,12.57
2023-01-13T13:57:04.949Z,15.90
2023-01-13T14:00:15.725Z,16.33
2023-01-13T14:03:28.127Z,17.67
2023-01-13T14:06:32.757Z,17.73
2023-01-13T14:09:45.545Z,12.30
2023-01-13T14:12:47.558Z,21.33
2023-01-13T14:16:01.955Z,15.93
2023-01-13T14:19:03.995Z,14.75
2023-01-13T14:22:06.171Z,19.50
2023-01-13T14:25:26.652Z,19.00
2023-01-13T14:28:36.737Z,16.63
2023-01-13T14:31:39.823Z,14.52
2023-01-13T14:34:41.661Z,18.42
2023-01-13T14:37:46.268Z,16.63
2023-01-13T14:40:48.258Z,16.42
2023-01-13T14:43:52.036Z,13.45
2023-01-13T14:46:57.172Z,17.90
2023-01-13T14:50:11.026Z,17.25
2023-01-13T14:53:39.779Z,16.80
2023-01-13T14:56:55.125Z,14.80
2023-01-13T15:00:15.429Z,18.35
2023-01-13T15:03:20.164Z,21.45
2023-01-13T15:06:26.728Z,19.02
2023-01-13T15:09:41.304Z,13.27
2023-01-13T15:12:43.798Z,24.15
2023-01-13T15:15:52.055Z,13.60
2023-01-13T15:18:55.722Z,16.73
2023-01-13T15:21:57.661Z,16.85
2023-01-13T15:24:59.786Z,17.23
2023-01-13T15:28:03.836Z,16.08
2023-01-13T15:31:05.734Z,17.20
2023-01-13T15:34:07.649Z,16.00
2023-01-13T15:37:09.965Z,13.52
2023-01-13T15:40:15.508Z,19.20
2023-01-13T15:43:39.406Z,17.83
2023-01-13T15:46:41.911Z,17.73
2023-01-13T15:49:45.134Z,17.77
2023-01-13T15:52:47.185Z,17.48
2023-01-13T15:55:56.719Z,19.88
2023-01-13T15:58:58.752Z,20.60
2023-01-13T16:02:00.620Z,12.77
2023-01-13T16:05:02.718Z,19.90
2023-01-13T16:08:04.996Z,15.30
2023-01-13T16:11:07.336Z,17.38
2023-01-13T16:14:09.345Z,16.15
2023-01-13T16:17:19.696Z,19.30
2023-01-13T16:20:21.705Z,15.00
2023-01-13T16:23:23.844Z,14.32
2023-01-13T16:26:29.244Z,13.43
2023-01-13T16:29:33.670Z,9.88
2023-01-13T16:32:36.027Z,16.67
2023-01-13T16:35:43.845Z,12.20
2023-01-13T16:38:59.865Z,16.60
2023-01-13T16:42:01.681Z,17.55
2023-01-13T16:45:08.431Z,18.02
2023-01-13T16:48:19.370Z,17.95
2023-01-13T16:51:22.335Z,19.40
2023-01-13T16:54:24.511Z,14.68
2023-01-13T16:57:26.655Z,16.08
2023-01-13T17:00:28.597Z,16.58
2023-01-13T17:03:34.216Z,15.10
2023-01-13T17:06:39.941Z,12.52
2023-01-13T17:09:49.905Z,13.35
2023-01-13T17:12:51.852Z,16.70
2023-01-13T17:15:53.874Z,18.77
2023-01-13T17:18:55.941Z,15.52
2023-01-13T17:21:58.106Z,16.40
2023-01-13T17:25:00.075Z,19.05
2023-01-13T17:28:02.198Z,13.73
2023-01-13T17:31:04.181Z,21.33
2023-01-13T17:34:06.329Z,20.08
2023-01-13T17:37:09.483Z,13.93
2023-01-13T17:40:12.010Z,18.90
2023-01-13T17:43:13.832Z,16.80
2023-01-13T17:46:18.648Z,15.02
2023-01-13T17:49:21.935Z,15.68
2023-01-13T17:55:25.665Z,16.75
2023-01-13T17:58:27.502Z,14.52
2023-01-13T18:01:33.102Z,13.10
2023-01-13T18:04:35.384Z,18.02
2023-01-13T18:07:37.267Z,14.68
2023-01-13T18:10:40.013Z,19.15
2023-01-13T18:13:43.281Z,17.17
2023-01-13T18:16:45.238Z,17.77
2023-01-13T18:20:05.850Z,16.38
2023-01-13T18:23:37.684Z,21.02
2023-01-13T18:26:58.392Z,14.80
2023-01-13T18:30:01.689Z,25.02
2023-01-13T18:36:08.967Z,15.05
2023-01-13T18:39:11.078Z,17.50
2023-01-13T18:42:31.409Z,18.40
2023-01-13T18:45:33.298Z,16.30
2023-01-13T18:48:35.420Z,21.10
2023-01-13T18:51:37.763Z,23.38
2023-01-13T18:54:39.791Z,18.65
2023-01-13T18:57:41.626Z,24.88
2023-01-13T19:00:43.677Z,22.73
2023-01-13T19:03:45.641Z,16.75
2023-01-13T19:06:51.581Z,23.52
2023-01-13T19:09:59.544Z,23.80
2023-01-13T19:13:02.016Z,20.95
2023-01-13T19:16:06.561Z,22.10
2023-01-13T19:19:08.505Z,16.00
2023-01-13T19:22:15.550Z,22.83
2023-01-13T19:25:17.432Z,23.30
2023-01-13T19:28:19.445Z,18.60
2023-01-13T19:31:21.503Z,23.30
2023-01-13T19:34:25.431Z,19.73
2023-01-13T19:37:31.555Z,22.95
2023-01-13T19:40:33.461Z,20.88
2023-01-13T19:43:53.814Z,26.83
2023-01-13T19:46:56.223Z,25.05
2023-01-13T19:49:58.149Z,24.42
2023-01-13T19:53:00.053Z,32.05
2023-01-13T19:56:02.008Z,21.92
2023-01-13T19:59:04.296Z,26.10
2023-01-13T20:02:11.861Z,20.45
2023-01-13T20:05:18.134Z,26.05
2023-01-13T20:08:21.469Z,31.58
2023-01-13T20:14:27.316Z,27.80
2023-01-13T20:17:30.740Z,23.05
2023-01-13T20:20:32.884Z,29.23
2023-01-13T20:23:34.769Z,26.77
2023-01-13T20:26:38.531Z,25.40
2023-01-13T20:29:40.449Z,37.47
2023-01-13T20:32:43.057Z,24.00
2023-01-13T20:35:45.472Z,33.03
2023-01-13T20:38:47.272Z,32.05
2023-01-13T20:42:08.215Z,23.35
2023-01-13T20:45:11.376Z,30.27
2023-01-13T20:48:13.296Z,27.83
2023-01-13T20:51:15.196Z,22.10
2023-01-13T20:54:17.758Z,31.88
2023-01-13T20:57:19.672Z,28.83
2023-01-13T21:00:22.155Z,34.72
2023-01-13T21:03:24.004Z,22.67
2023-01-13T21:06:27.535Z,36.03
2023-01-13T21:09:30.939Z,36.28
2023-01-13T21:15:55.367Z,27.30
2023-01-13T21:19:10.697Z,27.23
2023-01-13T21:22:12.510Z,32.45
2023-01-13T21:25:15.454Z,36.70
2023-01-13T21:28:18.232Z,22.65
2023-01-13T21:31:20.266Z,25.27
2023-01-13T21:34:22.342Z,29.50
2023-01-13T21:37:24.215Z,27.55
2023-01-13T21:40:26.242Z,33.88
2023-01-13T21:43:49.815Z,42.20
2023-01-13T21:47:10.647Z,33.58
2023-01-13T21:50:14.281Z,32.38
2023-01-13T21:53:16.273Z,32.83
2023-01-13T21:56:18.211Z,31.73
2023-01-13T21:59:20.120Z,30.83
2023-01-13T22:02:35.885Z,35.47
2023-01-13T22:05:38.366Z,35.08
2023-01-13T22:08:40.375Z,28.83
2023-01-13T22:11:43.135Z,32.50
2023-01-13T22:14:45.104Z,35.45
2023-01-13T22:17:51.211Z,28.27
2023-01-13T22:20:53.184Z,24.73
2023-01-13T22:23:55.150Z,28.15
2023-01-13T22:26:57.125Z,29.30
2023-01-13T22:29:59.094Z,22.90
2023-01-13T22:33:01.172Z,24.55
2023-01-13T22:36:03.331Z,28.88
2023-01-13T22:39:06.390Z,23.50
2023-01-13T22:42:10.152Z,29.92
2023-01-13T22:45:13.987Z,30.27
2023-01-13T22:48:15.998Z,28.85
2023-01-13T22:51:22.842Z,25.63
2023-01-13T22:54:25.003Z,23.38
2023-01-13T22:57:35.513Z,25.05
2023-01-13T23:00:40.680Z,24.00
2023-01-13T23:03:45.493Z,25.75
2023-01-13T23:06:47.322Z,27.00
2023-01-13T23:09:49.266Z,30.77
2023-01-13T23:12:52.624Z,26.83
2023-01-13T23:18:57.021Z,24.50
2023-01-13T23:21:58.971Z,30.67
2023-01-13T23:25:00.939Z,31.88
2023-01-13T23:28:02.954Z,23.10
2023-01-13T23:31:14.063Z,23.65
2023-01-13T23:34:16.094Z,24.20
2023-01-13T23:37:18.072Z,26.02
2023-01-13T23:40:19.956Z,28.40
2023-01-13T23:43:22.470Z,23.50
2023-01-13T23:46:25.035Z,26.37
2023-01-13T23:49:27.012Z,27.37
2023-01-13T23:52:28.839Z,22.45
2023-01-13T23:55:30.873Z,20.10
2023-01-13T23:58:34.879Z,31.02
